CheckWX is a tool to help pilots better visualize weather data.  It is not intended as a substitute for an official pre-flight weather briefing.

17:54:38 UTC

WABB TAF
Frans Kaisiepo Airport
Biak-Supiori Island, Indonesia
TAF WABB 241700Z 2418/2600 00000KT 9999 FEW018 BECMG 2422/2500 34005KT

Mar-24@
18:00 UTC

Mar-24 @ 18:00 UTC

Mar-24@
22:00 UTC

Mar-24 @ 22:00 UTC

TAF WABB 241700Z 2418/2600 00000KT 9999 FEW018
Cloud Levels
  • Few at 1,800' AGL

Mar-24@
22:00 UTC

Mar-24 @ 22:00 UTC

Mar-26@
00:00 UTC

Mar-26 @ 00:00 UTC

BECMG 2422/2500 34005KT

Becoming

Becoming Conditions expected by Mon, Mar 25, 2019 @ 00:00 UTC

Wind
  • 340° at 5 KTS
Cloud Levels
  • Few at 1,800' AGL